VECC/CCU METAR and TAF weather

Enter ICAO airport designator
Station Type Date Time Source
VECC METAR 2020/09/18 20:30 UTC NOAA

VECC 182030Z 00000KT 3500 HZ FEW020 28/26 Q1001 NOSIG


Station Type Date Time Source
VECC Decoded METAR 2020/09/18 20:30 UTC NOAA

Calcutta / Dum Dum, India (VECC) 22-39N 088-27E 6M
Sep 18, 2020 - 04:30 PM EDT / 2020.09.18 2030 UTC
Wind: Calm:0
Visibility: 2 mile(s):0
Sky conditions: mostly clear
Weather: haze
Temperature: 82 F (28 C)
Dew Point: 78 F (26 C)
Relative Humidity: 88%
Pressure (altimeter): 29.56 in. Hg (1001 hPa)
ob: VECC 182030Z 00000KT 3500 HZ FEW020 28/26 Q1001 NOSIG
cycle: 20

Station Type Date Time Source
VECC TAF 2020/09/18 18:52 UTC NOAA

TAF VECC 181700Z 1818/1924 00000KT 3500 HZ FEW018 SCT100
BECMG 1823/1901 2800 HZ SCT018 SCT100
BECMG 1903/1905 04005KT 4000 HZ PROB40
TEMPO 1908/1912 2000 TSRA SCT015 FEW025CB BKN090
BECMG 1922/1924 00000KT 2800 -RA HZ SCT018 BKN100

Example: see airport list